sensor_id;sensor_type;location;lat;lon;timestamp;P1;P2;P0
38288;PMS5003;24092;53.370;-6.588;2023-02-15T00:02:21;9;9;
38288;PMS5003;24092;53.370;-6.588;2023-02-15T00:04:48;14;12;
38288;PMS5003;24092;53.370;-6.588;2023-02-15T00:07:16;9;9;
38288;PMS5003;24092;53.370;-6.588;2023-02-15T00:09:44;10;10;
38288;PMS5003;24092;53.370;-6.588;2023-02-15T00:12:12;9;9;
38288;PMS5003;24092;53.370;-6.588;2023-02-15T00:14:40;9;9;
38288;PMS5003;24092;53.370;-6.588;2023-02-15T00:17:07;9;8;
38288;PMS5003;24092;53.370;-6.588;2023-02-15T00:19:34;14;9;
38288;PMS5003;24092;53.370;-6.588;2023-02-15T00:22:01;10;8;
38288;PMS5003;24092;53.370;-6.588;2023-02-15T00:24:28;11;9;
38288;PMS5003;24092;53.370;-6.588;2023-02-15T00:26:55;8;8;
38288;PMS5003;24092;53.370;-6.588;2023-02-15T00:29:22;9;8;
38288;PMS5003;24092;53.370;-6.588;2023-02-15T00:31:49;12;8;
38288;PMS5003;24092;53.370;-6.588;2023-02-15T00:34:17;14;12;
38288;PMS5003;24092;53.370;-6.588;2023-02-15T00:36:46;12;11;
38288;PMS5003;24092;53.370;-6.588;2023-02-15T00:39:13;12;9;
38288;PMS5003;24092;53.370;-6.588;2023-02-15T00:41:42;12;9;
38288;PMS5003;24092;53.370;-6.588;2023-02-15T00:44:09;12;11;
38288;PMS5003;24092;53.370;-6.588;2023-02-15T00:46:38;12;11;
38288;PMS5003;24092;53.370;-6.588;2023-02-15T00:49:05;12;12;
38288;PMS5003;24092;53.370;-6.588;2023-02-15T00:51:32;12;9;
38288;PMS5003;24092;53.370;-6.588;2023-02-15T00:53:59;11;9;
38288;PMS5003;24092;53.370;-6.588;2023-02-15T00:56:27;12;11;
38288;PMS5003;24092;53.370;-6.588;2023-02-15T00:58:54;9;9;
38288;PMS5003;24092;53.370;-6.588;2023-02-15T01:01:21;16;13;
38288;PMS5003;24092;53.370;-6.588;2023-02-15T01:03:49;13;12;
38288;PMS5003;24092;53.370;-6.588;2023-02-15T01:06:17;21;17;
38288;PMS5003;24092;53.370;-6.588;2023-02-15T01:08:45;13;11;
38288;PMS5003;24092;53.370;-6.588;2023-02-15T01:11:14;11;11;
38288;PMS5003;24092;53.370;-6.588;2023-02-15T01:13:43;13;11;
38288;PMS5003;24092;53.370;-6.588;2023-02-15T01:16:10;17;16;
38288;PMS5003;24092;53.370;-6.588;2023-02-15T01:18:38;14;14;
38288;PMS5003;24092;53.370;-6.588;2023-02-15T01:21:09;16;13;
38288;PMS5003;24092;53.370;-6.588;2023-02-15T01:23:37;22;14;
38288;PMS5003;24092;53.370;-6.588;2023-02-15T01:26:04;15;14;
38288;PMS5003;24092;53.370;-6.588;2023-02-15T01:28:31;15;13;
38288;PMS5003;24092;53.370;-6.588;2023-02-15T01:30:59;15;14;
38288;PMS5003;24092;53.370;-6.588;2023-02-15T01:33:30;14;12;
38288;PMS5003;24092;53.370;-6.588;2023-02-15T01:35:57;13;13;
38288;PMS5003;24092;53.370;-6.588;2023-02-15T01:38:26;15;13;
38288;PMS5003;24092;53.370;-6.588;2023-02-15T01:40:54;17;15;
38288;PMS5003;24092;53.370;-6.588;2023-02-15T01:43:21;19;16;
38288;PMS5003;24092;53.370;-6.588;2023-02-15T01:46:06;18;15;
38288;PMS5003;24092;53.370;-6.588;2023-02-15T01:48:35;14;14;
38288;PMS5003;24092;53.370;-6.588;2023-02-15T01:51:10;18;14;
38288;PMS5003;24092;53.370;-6.588;2023-02-15T01:53:40;23;19;
38288;PMS5003;24092;53.370;-6.588;2023-02-15T01:56:15;16;14;
38288;PMS5003;24092;53.370;-6.588;2023-02-15T01:58:45;17;15;
38288;PMS5003;24092;53.370;-6.588;2023-02-15T02:01:14;17;13;
38288;PMS5003;24092;53.370;-6.588;2023-02-15T02:03:42;21;17;
38288;PMS5003;24092;53.370;-6.588;2023-02-15T02:06:16;15;15;
38288;PMS5003;24092;53.370;-6.588;2023-02-15T02:08:44;15;14;
38288;PMS5003;24092;53.370;-6.588;2023-02-15T02:11:11;17;15;
38288;PMS5003;24092;53.370;-6.588;2023-02-15T02:13:39;16;15;
38288;PMS5003;24092;53.370;-6.588;2023-02-15T02:16:09;17;16;
38288;PMS5003;24092;53.370;-6.588;2023-02-15T02:18:43;19;15;
38288;PMS5003;24092;53.370;-6.588;2023-02-15T02:21:21;15;13;
38288;PMS5003;24092;53.370;-6.588;2023-02-15T02:24:01;19;17;
38288;PMS5003;24092;53.370;-6.588;2023-02-15T02:27:18;24;19;
38288;PMS5003;24092;53.370;-6.588;2023-02-15T02:29:57;20;16;
38288;PMS5003;24092;53.370;-6.588;2023-02-15T02:33:20;21;20;
38288;PMS5003;24092;53.370;-6.588;2023-02-15T02:36:02;24;20;
38288;PMS5003;24092;53.370;-6.588;2023-02-15T02:38:42;27;25;
38288;PMS5003;24092;53.370;-6.588;2023-02-15T02:41:20;20;19;
38288;PMS5003;24092;53.370;-6.588;2023-02-15T02:43:54;29;25;
38288;PMS5003;24092;53.370;-6.588;2023-02-15T02:46:28;27;21;
38288;PMS5003;24092;53.370;-6.588;2023-02-15T02:48:59;19;17;
38288;PMS5003;24092;53.370;-6.588;2023-02-15T02:51:27;22;18;
38288;PMS5003;24092;53.370;-6.588;2023-02-15T02:53:56;21;20;
38288;PMS5003;24092;53.370;-6.588;2023-02-15T02:56:27;18;18;
38288;PMS5003;24092;53.370;-6.588;2023-02-15T02:58:58;20;19;
38288;PMS5003;24092;53.370;-6.588;2023-02-15T03:01:30;20;18;
38288;PMS5003;24092;53.370;-6.588;2023-02-15T03:04:03;22;19;
38288;PMS5003;24092;53.370;-6.588;2023-02-15T03:06:35;27;24;
38288;PMS5003;24092;53.370;-6.588;2023-02-15T03:09:09;24;19;
38288;PMS5003;24092;53.370;-6.588;2023-02-15T03:11:41;26;23;
38288;PMS5003;24092;53.370;-6.588;2023-02-15T03:14:10;21;20;
38288;PMS5003;24092;53.370;-6.588;2023-02-15T03:16:39;25;21;
38288;PMS5003;24092;53.370;-6.588;2023-02-15T03:19:10;25;24;
38288;PMS5003;24092;53.370;-6.588;2023-02-15T03:21:41;27;24;
38288;PMS5003;24092;53.370;-6.588;2023-02-15T03:24:13;28;20;
38288;PMS5003;24092;53.370;-6.588;2023-02-15T03:26:46;23;19;
38288;PMS5003;24092;53.370;-6.588;2023-02-15T03:29:16;24;22;
38288;PMS5003;24092;53.370;-6.588;2023-02-15T03:31:46;25;19;
38288;PMS5003;24092;53.370;-6.588;2023-02-15T03:34:21;29;21;
38288;PMS5003;24092;53.370;-6.588;2023-02-15T03:36:50;21;17;
38288;PMS5003;24092;53.370;-6.588;2023-02-15T03:39:23;23;22;
38288;PMS5003;24092;53.370;-6.588;2023-02-15T03:41:57;28;26;
38288;PMS5003;24092;53.370;-6.588;2023-02-15T03:44:30;19;18;
38288;PMS5003;24092;53.370;-6.588;2023-02-15T03:47:02;22;20;
38288;PMS5003;24092;53.370;-6.588;2023-02-15T03:49:36;25;23;
38288;PMS5003;24092;53.370;-6.588;2023-02-15T03:52:08;23;22;
38288;PMS5003;24092;53.370;-6.588;2023-02-15T03:54:37;23;22;
38288;PMS5003;24092;53.370;-6.588;2023-02-15T03:57:07;28;24;
38288;PMS5003;24092;53.370;-6.588;2023-02-15T03:59:36;18;18;
38288;PMS5003;24092;53.370;-6.588;2023-02-15T04:02:05;26;22;
38288;PMS5003;24092;53.370;-6.588;2023-02-15T04:04:43;26;24;
38288;PMS5003;24092;53.370;-6.588;2023-02-15T04:07:12;23;20;
38288;PMS5003;24092;53.370;-6.588;2023-02-15T04:09:40;24;18;
38288;PMS5003;24092;53.370;-6.588;2023-02-15T04:12:07;24;24;
38288;PMS5003;24092;53.370;-6.588;2023-02-15T04:14:35;32;27;
38288;PMS5003;24092;53.370;-6.588;2023-02-15T04:17:04;22;17;
38288;PMS5003;24092;53.370;-6.588;2023-02-15T04:19:32;24;22;
38288;PMS5003;24092;53.370;-6.588;2023-02-15T04:21:59;24;22;
38288;PMS5003;24092;53.370;-6.588;2023-02-15T04:24:26;23;21;
38288;PMS5003;24092;53.370;-6.588;2023-02-15T04:26:53;21;16;
38288;PMS5003;24092;53.370;-6.588;2023-02-15T04:29:21;19;18;
38288;PMS5003;24092;53.370;-6.588;2023-02-15T04:31:50;26;19;
38288;PMS5003;24092;53.370;-6.588;2023-02-15T04:34:18;25;22;
38288;PMS5003;24092;53.370;-6.588;2023-02-15T04:36:45;27;24;
38288;PMS5003;24092;53.370;-6.588;2023-02-15T04:39:13;27;25;
38288;PMS5003;24092;53.370;-6.588;2023-02-15T04:41:41;22;21;
38288;PMS5003;24092;53.370;-6.588;2023-02-15T04:44:09;22;22;
38288;PMS5003;24092;53.370;-6.588;2023-02-15T04:46:36;21;17;
38288;PMS5003;24092;53.370;-6.588;2023-02-15T04:49:03;8;7;
38288;PMS5003;24092;53.370;-6.588;2023-02-15T04:51:30;4;2;
38288;PMS5003;24092;53.370;-6.588;2023-02-15T04:53:57;0;0;
38288;PMS5003;24092;53.370;-6.588;2023-02-15T04:56:24;1;1;
38288;PMS5003;24092;53.370;-6.588;2023-02-15T04:58:51;1;0;
38288;PMS5003;24092;53.370;-6.588;2023-02-15T05:01:18;0;0;
38288;PMS5003;24092;53.370;-6.588;2023-02-15T05:03:45;0;0;
38288;PMS5003;24092;53.370;-6.588;2023-02-15T05:06:12;0;0;
38288;PMS5003;24092;53.370;-6.588;2023-02-15T05:08:39;0;0;
38288;PMS5003;24092;53.370;-6.588;2023-02-15T05:11:07;0;0;
38288;PMS5003;24092;53.370;-6.588;2023-02-15T05:13:34;0;0;
38288;PMS5003;24092;53.370;-6.588;2023-02-15T05:16:01;0;0;
38288;PMS5003;24092;53.370;-6.588;2023-02-15T05:18:28;0;0;
38288;PMS5003;24092;53.370;-6.588;2023-02-15T05:20:55;0;0;
38288;PMS5003;24092;53.370;-6.588;2023-02-15T05:23:22;0;0;
38288;PMS5003;24092;53.370;-6.588;2023-02-15T05:25:49;0;0;
38288;PMS5003;24092;53.370;-6.588;2023-02-15T05:28:17;0;0;
38288;PMS5003;24092;53.370;-6.588;2023-02-15T05:30:44;0;0;
38288;PMS5003;24092;53.370;-6.588;2023-02-15T05:33:11;0;0;
38288;PMS5003;24092;53.370;-6.588;2023-02-15T05:35:38;0;0;
38288;PMS5003;24092;53.370;-6.588;2023-02-15T05:38:05;0;0;
38288;PMS5003;24092;53.370;-6.588;2023-02-15T05:40:33;0;0;
38288;PMS5003;24092;53.370;-6.588;2023-02-15T05:43:00;0;0;
38288;PMS5003;24092;53.370;-6.588;2023-02-15T05:45:27;0;0;
38288;PMS5003;24092;53.370;-6.588;2023-02-15T05:47:54;0;0;
38288;PMS5003;24092;53.370;-6.588;2023-02-15T05:50:21;0;0;
38288;PMS5003;24092;53.370;-6.588;2023-02-15T05:52:48;0;0;
38288;PMS5003;24092;53.370;-6.588;2023-02-15T05:55:15;0;0;
38288;PMS5003;24092;53.370;-6.588;2023-02-15T05:57:42;0;0;
38288;PMS5003;24092;53.370;-6.588;2023-02-15T06:00:10;0;0;
38288;PMS5003;24092;53.370;-6.588;2023-02-15T06:02:39;0;0;
38288;PMS5003;24092;53.370;-6.588;2023-02-15T06:05:06;0;0;
38288;PMS5003;24092;53.370;-6.588;2023-02-15T06:07:33;0;0;
38288;PMS5003;24092;53.370;-6.588;2023-02-15T06:10:01;0;0;
38288;PMS5003;24092;53.370;-6.588;2023-02-15T06:12:28;0;0;
38288;PMS5003;24092;53.370;-6.588;2023-02-15T06:14:55;0;0;
38288;PMS5003;24092;53.370;-6.588;2023-02-15T06:17:22;0;0;
38288;PMS5003;24092;53.370;-6.588;2023-02-15T06:19:49;0;0;
38288;PMS5003;24092;53.370;-6.588;2023-02-15T06:22:16;0;0;
38288;PMS5003;24092;53.370;-6.588;2023-02-15T06:24:43;0;0;
38288;PMS5003;24092;53.370;-6.588;2023-02-15T06:27:10;1;1;
38288;PMS5003;24092;53.370;-6.588;2023-02-15T06:29:37;0;0;
38288;PMS5003;24092;53.370;-6.588;2023-02-15T06:32:05;0;0;
38288;PMS5003;24092;53.370;-6.588;2023-02-15T06:34:32;0;0;
38288;PMS5003;24092;53.370;-6.588;2023-02-15T06:36:59;1;0;
38288;PMS5003;24092;53.370;-6.588;2023-02-15T06:39:26;0;0;
38288;PMS5003;24092;53.370;-6.588;2023-02-15T06:41:53;0;0;
38288;PMS5003;24092;53.370;-6.588;2023-02-15T06:44:20;0;0;
38288;PMS5003;24092;53.370;-6.588;2023-02-15T06:46:47;0;0;
38288;PMS5003;24092;53.370;-6.588;2023-02-15T06:49:15;0;0;
38288;PMS5003;24092;53.370;-6.588;2023-02-15T06:51:42;0;0;
38288;PMS5003;24092;53.370;-6.588;2023-02-15T06:54:10;0;0;
38288;PMS5003;24092;53.370;-6.588;2023-02-15T06:56:37;0;0;
38288;PMS5003;24092;53.370;-6.588;2023-02-15T06:59:04;0;0;
38288;PMS5003;24092;53.370;-6.588;2023-02-15T07:01:31;0;0;
38288;PMS5003;24092;53.370;-6.588;2023-02-15T07:03:58;0;0;
38288;PMS5003;24092;53.370;-6.588;2023-02-15T07:06:25;0;0;
38288;PMS5003;24092;53.370;-6.588;2023-02-15T07:08:52;0;0;
38288;PMS5003;24092;53.370;-6.588;2023-02-15T07:11:19;0;0;
38288;PMS5003;24092;53.370;-6.588;2023-02-15T07:13:47;0;0;
38288;PMS5003;24092;53.370;-6.588;2023-02-15T07:16:14;0;0;
38288;PMS5003;24092;53.370;-6.588;2023-02-15T07:18:41;0;0;
38288;PMS5003;24092;53.370;-6.588;2023-02-15T07:21:08;1;0;
38288;PMS5003;24092;53.370;-6.588;2023-02-15T07:23:35;0;0;
38288;PMS5003;24092;53.370;-6.588;2023-02-15T07:26:03;0;0;
38288;PMS5003;24092;53.370;-6.588;2023-02-15T07:28:31;0;0;
38288;PMS5003;24092;53.370;-6.588;2023-02-15T07:31:00;0;0;
38288;PMS5003;24092;53.370;-6.588;2023-02-15T07:33:29;0;0;
38288;PMS5003;24092;53.370;-6.588;2023-02-15T07:35:57;0;0;
38288;PMS5003;24092;53.370;-6.588;2023-02-15T07:38:26;0;0;
38288;PMS5003;24092;53.370;-6.588;2023-02-15T07:40:57;0;0;
38288;PMS5003;24092;53.370;-6.588;2023-02-15T07:43:25;0;0;
38288;PMS5003;24092;53.370;-6.588;2023-02-15T07:45:52;0;0;
38288;PMS5003;24092;53.370;-6.588;2023-02-15T07:48:19;1;0;
38288;PMS5003;24092;53.370;-6.588;2023-02-15T07:50:46;0;0;
38288;PMS5003;24092;53.370;-6.588;2023-02-15T07:53:13;1;0;
38288;PMS5003;24092;53.370;-6.588;2023-02-15T07:55:41;0;0;
38288;PMS5003;24092;53.370;-6.588;2023-02-15T07:58:08;0;0;
38288;PMS5003;24092;53.370;-6.588;2023-02-15T08:00:35;0;0;
38288;PMS5003;24092;53.370;-6.588;2023-02-15T08:03:02;0;0;
38288;PMS5003;24092;53.370;-6.588;2023-02-15T08:05:29;0;0;
38288;PMS5003;24092;53.370;-6.588;2023-02-15T08:07:56;0;0;
38288;PMS5003;24092;53.370;-6.588;2023-02-15T08:10:23;0;0;
38288;PMS5003;24092;53.370;-6.588;2023-02-15T08:12:50;0;0;
38288;PMS5003;24092;53.370;-6.588;2023-02-15T08:15:18;0;0;
38288;PMS5003;24092;53.370;-6.588;2023-02-15T08:17:45;0;0;
38288;PMS5003;24092;53.370;-6.588;2023-02-15T08:20:12;0;0;
38288;PMS5003;24092;53.370;-6.588;2023-02-15T08:22:39;0;0;
38288;PMS5003;24092;53.370;-6.588;2023-02-15T08:25:06;0;0;
38288;PMS5003;24092;53.370;-6.588;2023-02-15T08:27:33;0;0;
38288;PMS5003;24092;53.370;-6.588;2023-02-15T08:30:00;1;1;
38288;PMS5003;24092;53.370;-6.588;2023-02-15T08:32:27;2;0;
38288;PMS5003;24092;53.370;-6.588;2023-02-15T08:34:54;1;0;
38288;PMS5003;24092;53.370;-6.588;2023-02-15T08:37:22;0;0;
38288;PMS5003;24092;53.370;-6.588;2023-02-15T08:39:49;0;0;
38288;PMS5003;24092;53.370;-6.588;2023-02-15T08:42:16;1;1;
38288;PMS5003;24092;53.370;-6.588;2023-02-15T08:44:43;1;0;
38288;PMS5003;24092;53.370;-6.588;2023-02-15T08:47:10;0;0;
38288;PMS5003;24092;53.370;-6.588;2023-02-15T08:49:37;1;1;
38288;PMS5003;24092;53.370;-6.588;2023-02-15T08:52:04;0;0;
38288;PMS5003;24092;53.370;-6.588;2023-02-15T08:54:32;0;0;
38288;PMS5003;24092;53.370;-6.588;2023-02-15T08:56:59;0;0;
38288;PMS5003;24092;53.370;-6.588;2023-02-15T08:59:26;0;0;
38288;PMS5003;24092;53.370;-6.588;2023-02-15T09:01:53;0;0;
38288;PMS5003;24092;53.370;-6.588;2023-02-15T09:04:21;0;0;
38288;PMS5003;24092;53.370;-6.588;2023-02-15T09:06:49;0;0;
38288;PMS5003;24092;53.370;-6.588;2023-02-15T09:09:18;0;0;
38288;PMS5003;24092;53.370;-6.588;2023-02-15T09:11:47;0;0;
38288;PMS5003;24092;53.370;-6.588;2023-02-15T09:14:17;0;0;
38288;PMS5003;24092;53.370;-6.588;2023-02-15T09:16:46;0;0;
38288;PMS5003;24092;53.370;-6.588;2023-02-15T09:19:14;0;0;
38288;PMS5003;24092;53.370;-6.588;2023-02-15T09:21:42;0;0;
38288;PMS5003;24092;53.370;-6.588;2023-02-15T09:24:10;0;0;
38288;PMS5003;24092;53.370;-6.588;2023-02-15T09:26:39;0;0;
38288;PMS5003;24092;53.370;-6.588;2023-02-15T09:29:10;0;0;
38288;PMS5003;24092;53.370;-6.588;2023-02-15T09:31:39;0;0;
38288;PMS5003;24092;53.370;-6.588;2023-02-15T09:34:07;0;0;
38288;PMS5003;24092;53.370;-6.588;2023-02-15T09:36:35;1;1;
38288;PMS5003;24092;53.370;-6.588;2023-02-15T09:39:06;0;0;
38288;PMS5003;24092;53.370;-6.588;2023-02-15T09:41:44;0;0;
38288;PMS5003;24092;53.370;-6.588;2023-02-15T09:44:50;0;0;
38288;PMS5003;24092;53.370;-6.588;2023-02-15T09:47:40;0;0;
38288;PMS5003;24092;53.370;-6.588;2023-02-15T09:50:21;0;0;
38288;PMS5003;24092;53.370;-6.588;2023-02-15T09:53:00;0;0;
38288;PMS5003;24092;53.370;-6.588;2023-02-15T09:55:44;5;4;
38288;PMS5003;24092;53.370;-6.588;2023-02-15T09:58:21;1;1;
38288;PMS5003;24092;53.370;-6.588;2023-02-15T10:01:01;0;0;
38288;PMS5003;24092;53.370;-6.588;2023-02-15T10:03:42;0;0;
38288;PMS5003;24092;53.370;-6.588;2023-02-15T10:06:26;0;0;
38288;PMS5003;24092;53.370;-6.588;2023-02-15T10:09:02;0;0;
38288;PMS5003;24092;53.370;-6.588;2023-02-15T10:11:48;0;0;
38288;PMS5003;24092;53.370;-6.588;2023-02-15T10:14:29;0;0;
38288;PMS5003;24092;53.370;-6.588;2023-02-15T10:17:14;0;0;
38288;PMS5003;24092;53.370;-6.588;2023-02-15T10:19:58;1;0;
38288;PMS5003;24092;53.370;-6.588;2023-02-15T10:22:37;0;0;
38288;PMS5003;24092;53.370;-6.588;2023-02-15T10:25:17;1;0;
38288;PMS5003;24092;53.370;-6.588;2023-02-15T10:27:53;0;0;
38288;PMS5003;24092;53.370;-6.588;2023-02-15T10:30:21;0;0;
38288;PMS5003;24092;53.370;-6.588;2023-02-15T10:32:59;1;0;
38288;PMS5003;24092;53.370;-6.588;2023-02-15T10:35:30;0;0;
38288;PMS5003;24092;53.370;-6.588;2023-02-15T10:38:11;0;0;
38288;PMS5003;24092;53.370;-6.588;2023-02-15T10:41:01;1;0;
38288;PMS5003;24092;53.370;-6.588;2023-02-15T10:43:41;0;0;
38288;PMS5003;24092;53.370;-6.588;2023-02-15T10:46:19;0;0;
38288;PMS5003;24092;53.370;-6.588;2023-02-15T10:49:03;0;0;
38288;PMS5003;24092;53.370;-6.588;2023-02-15T10:51:50;0;0;
38288;PMS5003;24092;53.370;-6.588;2023-02-15T10:54:27;0;0;
38288;PMS5003;24092;53.370;-6.588;2023-02-15T10:57:03;0;0;
38288;PMS5003;24092;53.370;-6.588;2023-02-15T10:59:43;0;0;
38288;PMS5003;24092;53.370;-6.588;2023-02-15T11:02:24;0;0;
38288;PMS5003;24092;53.370;-6.588;2023-02-15T11:05:02;0;0;
38288;PMS5003;24092;53.370;-6.588;2023-02-15T11:07:46;0;0;
38288;PMS5003;24092;53.370;-6.588;2023-02-15T11:10:21;0;0;
38288;PMS5003;24092;53.370;-6.588;2023-02-15T11:12:55;0;0;
38288;PMS5003;24092;53.370;-6.588;2023-02-15T11:15:25;0;0;
38288;PMS5003;24092;53.370;-6.588;2023-02-15T11:17:58;0;0;
38288;PMS5003;24092;53.370;-6.588;2023-02-15T11:20:31;0;0;
38288;PMS5003;24092;53.370;-6.588;2023-02-15T11:23:07;1;0;
38288;PMS5003;24092;53.370;-6.588;2023-02-15T11:25:41;0;0;
38288;PMS5003;24092;53.370;-6.588;2023-02-15T11:28:12;1;1;
38288;PMS5003;24092;53.370;-6.588;2023-02-15T11:30:47;1;1;
38288;PMS5003;24092;53.370;-6.588;2023-02-15T11:33:17;2;0;
38288;PMS5003;24092;53.370;-6.588;2023-02-15T11:35:49;1;0;
38288;PMS5003;24092;53.370;-6.588;2023-02-15T11:38:20;1;1;
38288;PMS5003;24092;53.370;-6.588;2023-02-15T11:40:51;2;0;
38288;PMS5003;24092;53.370;-6.588;2023-02-15T11:43:27;0;0;
38288;PMS5003;24092;53.370;-6.588;2023-02-15T11:45:59;1;0;
38288;PMS5003;24092;53.370;-6.588;2023-02-15T11:48:26;0;0;
38288;PMS5003;24092;53.370;-6.588;2023-02-15T11:50:56;0;0;
38288;PMS5003;24092;53.370;-6.588;2023-02-15T11:53:24;0;0;
38288;PMS5003;24092;53.370;-6.588;2023-02-15T11:55:57;3;1;
38288;PMS5003;24092;53.370;-6.588;2023-02-15T11:58:29;2;1;
38288;PMS5003;24092;53.370;-6.588;2023-02-15T12:01:04;1;1;
38288;PMS5003;24092;53.370;-6.588;2023-02-15T12:03:42;0;0;
38288;PMS5003;24092;53.370;-6.588;2023-02-15T12:06:14;1;1;
38288;PMS5003;24092;53.370;-6.588;2023-02-15T12:08:50;0;0;
38288;PMS5003;24092;53.370;-6.588;2023-02-15T12:11:25;1;1;
38288;PMS5003;24092;53.370;-6.588;2023-02-15T12:13:59;2;1;
38288;PMS5003;24092;53.370;-6.588;2023-02-15T12:16:29;0;0;
38288;PMS5003;24092;53.370;-6.588;2023-02-15T12:19:01;0;0;
38288;PMS5003;24092;53.370;-6.588;2023-02-15T12:21:29;1;0;
38288;PMS5003;24092;53.370;-6.588;2023-02-15T12:24:01;0;0;
38288;PMS5003;24092;53.370;-6.588;2023-02-15T12:26:36;1;1;
38288;PMS5003;24092;53.370;-6.588;2023-02-15T12:29:06;0;0;
38288;PMS5003;24092;53.370;-6.588;2023-02-15T12:31:43;2;0;
38288;PMS5003;24092;53.370;-6.588;2023-02-15T12:34:12;0;0;
38288;PMS5003;24092;53.370;-6.588;2023-02-15T12:36:52;1;0;
38288;PMS5003;24092;53.370;-6.588;2023-02-15T12:39:21;0;0;
38288;PMS5003;24092;53.370;-6.588;2023-02-15T12:43:43;1;0;
38288;PMS5003;24092;53.370;-6.588;2023-02-15T12:46:13;0;0;
38288;PMS5003;24092;53.370;-6.588;2023-02-15T12:48:46;1;1;
38288;PMS5003;24092;53.370;-6.588;2023-02-15T12:51:30;0;0;
38288;PMS5003;24092;53.370;-6.588;2023-02-15T12:54:15;0;0;
38288;PMS5003;24092;53.370;-6.588;2023-02-15T12:56:50;4;3;
38288;PMS5003;24092;53.370;-6.588;2023-02-15T12:59:18;0;0;
38288;PMS5003;24092;53.370;-6.588;2023-02-15T13:01:47;0;0;
38288;PMS5003;24092;53.370;-6.588;2023-02-15T13:04:21;0;0;
38288;PMS5003;24092;53.370;-6.588;2023-02-15T13:06:50;1;0;
38288;PMS5003;24092;53.370;-6.588;2023-02-15T13:09:19;0;0;
38288;PMS5003;24092;53.370;-6.588;2023-02-15T13:11:51;0;0;
38288;PMS5003;24092;53.370;-6.588;2023-02-15T13:14:19;1;0;
38288;PMS5003;24092;53.370;-6.588;2023-02-15T13:16:52;2;1;
38288;PMS5003;24092;53.370;-6.588;2023-02-15T13:19:26;0;0;
38288;PMS5003;24092;53.370;-6.588;2023-02-15T13:21:59;2;2;
38288;PMS5003;24092;53.370;-6.588;2023-02-15T13:24:32;0;0;
38288;PMS5003;24092;53.370;-6.588;2023-02-15T13:27:02;0;0;
38288;PMS5003;24092;53.370;-6.588;2023-02-15T13:29:30;1;0;
38288;PMS5003;24092;53.370;-6.588;2023-02-15T13:32:04;0;0;
38288;PMS5003;24092;53.370;-6.588;2023-02-15T13:34:38;2;2;
38288;PMS5003;24092;53.370;-6.588;2023-02-15T13:37:08;1;0;
38288;PMS5003;24092;53.370;-6.588;2023-02-15T13:39:42;1;0;
38288;PMS5003;24092;53.370;-6.588;2023-02-15T13:42:17;1;0;
38288;PMS5003;24092;53.370;-6.588;2023-02-15T13:44:52;0;0;
38288;PMS5003;24092;53.370;-6.588;2023-02-15T13:47:29;0;0;
38288;PMS5003;24092;53.370;-6.588;2023-02-15T13:50:06;0;0;
38288;PMS5003;24092;53.370;-6.588;2023-02-15T13:52:47;0;0;
38288;PMS5003;24092;53.370;-6.588;2023-02-15T13:55:26;0;0;
38288;PMS5003;24092;53.370;-6.588;2023-02-15T13:58:08;1;1;
38288;PMS5003;24092;53.370;-6.588;2023-02-15T14:00:56;0;0;
38288;PMS5003;24092;53.370;-6.588;2023-02-15T14:03:54;3;2;
38288;PMS5003;24092;53.370;-6.588;2023-02-15T14:06:39;0;0;
38288;PMS5003;24092;53.370;-6.588;2023-02-15T14:09:20;0;0;
38288;PMS5003;24092;53.370;-6.588;2023-02-15T14:11:58;1;1;
38288;PMS5003;24092;53.370;-6.588;2023-02-15T14:14:40;0;0;
38288;PMS5003;24092;53.370;-6.588;2023-02-15T14:17:20;1;0;
38288;PMS5003;24092;53.370;-6.588;2023-02-15T14:19:52;1;1;
38288;PMS5003;24092;53.370;-6.588;2023-02-15T14:22:25;0;0;
38288;PMS5003;24092;53.370;-6.588;2023-02-15T14:25:01;3;2;
38288;PMS5003;24092;53.370;-6.588;2023-02-15T14:27:42;1;0;
38288;PMS5003;24092;53.370;-6.588;2023-02-15T14:30:18;1;0;
38288;PMS5003;24092;53.370;-6.588;2023-02-15T14:32:48;2;0;
38288;PMS5003;24092;53.370;-6.588;2023-02-15T14:35:19;1;0;
38288;PMS5003;24092;53.370;-6.588;2023-02-15T14:37:50;0;0;
38288;PMS5003;24092;53.370;-6.588;2023-02-15T14:40:26;0;0;
38288;PMS5003;24092;53.370;-6.588;2023-02-15T14:43:00;0;0;
38288;PMS5003;24092;53.370;-6.588;2023-02-15T14:45:34;0;0;
38288;PMS5003;24092;53.370;-6.588;2023-02-15T14:48:08;2;0;
38288;PMS5003;24092;53.370;-6.588;2023-02-15T14:50:42;2;1;
38288;PMS5003;24092;53.370;-6.588;2023-02-15T14:53:15;0;0;
38288;PMS5003;24092;53.370;-6.588;2023-02-15T14:56:04;2;0;
38288;PMS5003;24092;53.370;-6.588;2023-02-15T14:58:33;0;0;
38288;PMS5003;24092;53.370;-6.588;2023-02-15T15:01:03;2;1;
38288;PMS5003;24092;53.370;-6.588;2023-02-15T15:03:33;0;0;
38288;PMS5003;24092;53.370;-6.588;2023-02-15T15:06:01;0;0;
38288;PMS5003;24092;53.370;-6.588;2023-02-15T15:08:32;0;0;
38288;PMS5003;24092;53.370;-6.588;2023-02-15T15:15:43;1;1;
38288;PMS5003;24092;53.370;-6.588;2023-02-15T15:18:12;1;0;
38288;PMS5003;24092;53.370;-6.588;2023-02-15T15:21:10;0;0;
38288;PMS5003;24092;53.370;-6.588;2023-02-15T15:23:40;1;1;
38288;PMS5003;24092;53.370;-6.588;2023-02-15T15:26:26;0;0;
38288;PMS5003;24092;53.370;-6.588;2023-02-15T15:28:56;2;1;
38288;PMS5003;24092;53.370;-6.588;2023-02-15T15:31:27;1;1;
38288;PMS5003;24092;53.370;-6.588;2023-02-15T15:35:15;3;2;
38288;PMS5003;24092;53.370;-6.588;2023-02-15T15:37:59;0;0;
38288;PMS5003;24092;53.370;-6.588;2023-02-15T15:40:52;2;1;
38288;PMS5003;24092;53.370;-6.588;2023-02-15T15:43:55;0;0;
38288;PMS5003;24092;53.370;-6.588;2023-02-15T15:46:49;0;0;
38288;PMS5003;24092;53.370;-6.588;2023-02-15T15:49:28;0;0;
38288;PMS5003;24092;53.370;-6.588;2023-02-15T15:51:59;1;1;
38288;PMS5003;24092;53.370;-6.588;2023-02-15T15:54:29;0;0;
38288;PMS5003;24092;53.370;-6.588;2023-02-15T15:56:58;2;1;
38288;PMS5003;24092;53.370;-6.588;2023-02-15T15:59:29;1;1;
38288;PMS5003;24092;53.370;-6.588;2023-02-15T16:02:03;0;0;
38288;PMS5003;24092;53.370;-6.588;2023-02-15T16:04:32;0;0;
38288;PMS5003;24092;53.370;-6.588;2023-02-15T16:07:13;0;0;
38288;PMS5003;24092;53.370;-6.588;2023-02-15T16:09:53;2;2;
38288;PMS5003;24092;53.370;-6.588;2023-02-15T16:12:20;2;1;
38288;PMS5003;24092;53.370;-6.588;2023-02-15T16:14:49;1;1;
38288;PMS5003;24092;53.370;-6.588;2023-02-15T16:17:17;2;1;
38288;PMS5003;24092;53.370;-6.588;2023-02-15T16:19:48;1;1;
38288;PMS5003;24092;53.370;-6.588;2023-02-15T16:22:18;0;0;
38288;PMS5003;24092;53.370;-6.588;2023-02-15T16:24:53;1;1;
38288;PMS5003;24092;53.370;-6.588;2023-02-15T16:27:35;0;0;
38288;PMS5003;24092;53.370;-6.588;2023-02-15T16:30:38;1;1;
38288;PMS5003;24092;53.370;-6.588;2023-02-15T16:33:07;1;1;
38288;PMS5003;24092;53.370;-6.588;2023-02-15T16:35:35;1;1;
38288;PMS5003;24092;53.370;-6.588;2023-02-15T16:38:04;1;1;
38288;PMS5003;24092;53.370;-6.588;2023-02-15T16:40:37;2;1;
38288;PMS5003;24092;53.370;-6.588;2023-02-15T16:43:14;1;1;
38288;PMS5003;24092;53.370;-6.588;2023-02-15T16:45:44;5;2;
38288;PMS5003;24092;53.370;-6.588;2023-02-15T16:48:14;0;0;
38288;PMS5003;24092;53.370;-6.588;2023-02-15T16:50:48;1;0;
38288;PMS5003;24092;53.370;-6.588;2023-02-15T16:53:18;1;1;
38288;PMS5003;24092;53.370;-6.588;2023-02-15T16:55:50;0;0;
38288;PMS5003;24092;53.370;-6.588;2023-02-15T16:58:23;2;1;
38288;PMS5003;24092;53.370;-6.588;2023-02-15T17:00:56;1;1;
38288;PMS5003;24092;53.370;-6.588;2023-02-15T17:03:25;2;1;
38288;PMS5003;24092;53.370;-6.588;2023-02-15T17:05:53;4;2;